createdAt,value
2023-11-19T00:01:51.099Z,86.28
2023-11-19T00:04:19.000Z,85.97
2023-11-19T00:06:46.759Z,86.35
2023-11-19T00:09:14.529Z,86.32
2023-11-19T00:11:42.175Z,86.44
2023-11-19T00:14:09.998Z,86.41
2023-11-19T00:16:37.737Z,86.42
2023-11-19T00:19:06.791Z,86.14
2023-11-19T00:21:34.621Z,86.43
2023-11-19T00:24:02.570Z,86.16
2023-11-19T00:26:31.112Z,86.24
2023-11-19T00:28:58.906Z,86.39
2023-11-19T00:31:29.239Z,86.45
2023-11-19T00:33:57.054Z,86.16
2023-11-19T00:36:25.549Z,86.34
2023-11-19T00:38:53.867Z,85.97
2023-11-19T00:41:21.469Z,86.35
2023-11-19T00:43:49.485Z,86.13
2023-11-19T00:46:17.189Z,85.99
2023-11-19T00:48:44.862Z,85.73
2023-11-19T00:51:12.936Z,85.84
2023-11-19T00:53:40.607Z,85.97
2023-11-19T00:56:08.224Z,85.64
2023-11-19T00:58:35.964Z,85.62
2023-11-19T01:01:03.627Z,85.43
2023-11-19T01:03:31.488Z,85.74
2023-11-19T01:06:01.010Z,85.49
2023-11-19T01:08:28.920Z,85.49
2023-11-19T01:10:56.519Z,85.65
2023-11-19T01:13:24.124Z,85.96
2023-11-19T01:15:52.397Z,85.55
2023-11-19T01:18:20.127Z,85.41
2023-11-19T01:20:47.858Z,85.40
2023-11-19T01:23:15.452Z,86.24
2023-11-19T01:25:43.097Z,86.07
2023-11-19T01:28:10.805Z,85.96
2023-11-19T01:30:38.637Z,85.99
2023-11-19T01:33:08.765Z,85.51
2023-11-19T01:35:36.493Z,85.56
2023-11-19T01:38:04.033Z,85.73
2023-11-19T01:40:31.719Z,85.57
2023-11-19T01:42:59.416Z,85.86
2023-11-19T01:45:27.127Z,86.19
2023-11-19T01:47:54.717Z,86.07
2023-11-19T01:50:22.371Z,86.01
2023-11-19T01:52:50.241Z,86.55
2023-11-19T01:55:16.813Z,86.64
2023-11-19T01:57:44.450Z,86.41
2023-11-19T02:00:13.889Z,86.37
2023-11-19T02:02:42.496Z,86.88
2023-11-19T02:05:10.482Z,86.62
2023-11-19T02:07:38.019Z,87.02
2023-11-19T02:10:06.812Z,86.74
2023-11-19T02:12:36.841Z,86.75
2023-11-19T02:15:04.656Z,86.34
2023-11-19T02:17:32.663Z,86.71
2023-11-19T02:20:00.578Z,87.28
2023-11-19T02:22:28.132Z,86.78
2023-11-19T02:24:55.861Z,87.45
2023-11-19T02:27:23.451Z,86.90
2023-11-19T02:29:51.003Z,87.28
2023-11-19T02:32:18.630Z,87.07
2023-11-19T02:34:46.225Z,87.19
2023-11-19T02:37:15.870Z,86.79
2023-11-19T02:39:44.154Z,87.22
2023-11-19T02:42:12.464Z,86.97
2023-11-19T02:44:40.487Z,86.75
2023-11-19T02:47:09.212Z,86.66
2023-11-19T02:49:38.521Z,86.87
2023-11-19T02:52:08.358Z,86.80
2023-11-19T02:54:37.771Z,87.03
2023-11-19T02:57:05.916Z,86.48
2023-11-19T02:59:40.376Z,87.17
2023-11-19T03:02:08.799Z,86.88
2023-11-19T03:04:36.623Z,86.37
2023-11-19T03:07:04.213Z,86.53
2023-11-19T03:09:31.822Z,86.40
2023-11-19T03:11:59.429Z,86.73
2023-11-19T03:14:27.012Z,86.73
2023-11-19T03:16:54.782Z,86.19
2023-11-19T03:21:53.048Z,85.90
2023-11-19T03:24:20.600Z,86.45
2023-11-19T03:26:48.120Z,85.76
2023-11-19T03:29:15.630Z,85.74
2023-11-19T03:31:43.747Z,86.13
2023-11-19T03:34:11.466Z,85.66
2023-11-19T03:36:39.079Z,85.29
2023-11-19T03:39:06.736Z,85.37
2023-11-19T03:44:04.635Z,85.87
2023-11-19T03:46:32.294Z,84.98
2023-11-19T03:49:00.140Z,85.38
2023-11-19T03:51:27.775Z,85.81
2023-11-19T03:53:55.310Z,85.53
2023-11-19T03:56:23.481Z,86.22
2023-11-19T03:58:50.957Z,86.17
2023-11-19T04:01:18.575Z,86.52
2023-11-19T04:06:16.913Z,86.38
2023-11-19T04:08:44.621Z,86.35
2023-11-19T04:11:12.134Z,86.69
2023-11-19T04:13:39.628Z,86.36
2023-11-19T04:16:07.330Z,86.67
2023-11-19T04:18:34.861Z,86.70
2023-11-19T04:21:02.721Z,86.46
2023-11-19T04:23:30.308Z,86.23
2023-11-19T04:26:10.777Z,86.96
2023-11-19T04:28:38.977Z,86.46
2023-11-19T04:31:07.295Z,86.45
2023-11-19T04:33:34.996Z,86.05
2023-11-19T04:36:03.715Z,86.45
2023-11-19T04:38:31.750Z,86.05
2023-11-19T04:40:59.551Z,85.71
2023-11-19T04:43:27.251Z,85.94
2023-11-19T04:45:54.943Z,85.70
2023-11-19T04:48:22.920Z,85.89
2023-11-19T04:50:52.416Z,85.90
2023-11-19T04:53:19.970Z,85.74
2023-11-19T04:55:47.537Z,85.53
2023-11-19T04:58:15.181Z,86.29
2023-11-19T05:00:42.771Z,85.95
2023-11-19T05:03:10.588Z,86.29
2023-11-19T05:05:38.295Z,86.29
2023-11-19T05:08:06.439Z,85.66
2023-11-19T05:10:34.327Z,85.68
2023-11-19T05:13:01.976Z,85.95
2023-11-19T05:15:30.077Z,85.51
2023-11-19T05:17:57.662Z,85.04
2023-11-19T05:20:25.346Z,85.38
2023-11-19T05:22:54.516Z,85.15
2023-11-19T05:25:22.292Z,84.97
2023-11-19T05:27:49.862Z,85.13
2023-11-19T05:30:17.441Z,85.29
2023-11-19T05:32:45.317Z,85.44
2023-11-19T05:35:12.928Z,85.19
2023-11-19T05:37:40.529Z,84.94
2023-11-19T05:40:15.505Z,85.26
2023-11-19T05:42:43.447Z,85.30
2023-11-19T05:45:11.179Z,85.02
2023-11-19T05:47:38.812Z,84.81
2023-11-19T05:50:07.395Z,85.05
2023-11-19T05:52:35.377Z,85.24
2023-11-19T05:55:05.583Z,84.64
2023-11-19T05:57:46.726Z,84.87
2023-11-19T06:00:16.718Z,85.09
2023-11-19T06:02:44.442Z,84.99
2023-11-19T06:05:12.068Z,85.22
2023-11-19T06:07:40.486Z,85.04
2023-11-19T06:10:08.211Z,84.66
2023-11-19T06:12:38.905Z,85.05
2023-11-19T06:15:06.659Z,84.75
2023-11-19T06:17:34.361Z,84.86
2023-11-19T06:20:01.982Z,84.20
2023-11-19T06:22:29.545Z,84.41
2023-11-19T06:24:57.154Z,84.55
2023-11-19T06:27:24.718Z,83.89
2023-11-19T06:29:52.304Z,84.41
2023-11-19T06:32:20.176Z,84.35
2023-11-19T06:34:47.731Z,84.08
2023-11-19T06:37:15.679Z,83.84
2023-11-19T06:39:43.259Z,83.74
2023-11-19T06:42:10.810Z,83.85
2023-11-19T06:44:39.055Z,84.09
2023-11-19T06:47:07.598Z,83.91
2023-11-19T06:49:35.194Z,84.01
2023-11-19T06:52:02.781Z,84.03
2023-11-19T06:54:30.369Z,84.05
2023-11-19T06:56:58.605Z,83.92
2023-11-19T06:59:26.545Z,83.52
2023-11-19T07:01:54.119Z,83.87
2023-11-19T07:04:21.673Z,83.77
2023-11-19T07:06:49.625Z,84.21
2023-11-19T07:09:17.788Z,84.21
2023-11-19T07:11:46.892Z,83.51
2023-11-19T07:14:14.538Z,83.51
2023-11-19T07:16:42.150Z,83.77
2023-11-19T07:19:09.695Z,83.28
2023-11-19T07:21:40.838Z,83.51
2023-11-19T07:24:08.464Z,83.53
2023-11-19T07:26:36.079Z,83.30
2023-11-19T07:29:03.952Z,83.18
2023-11-19T07:31:31.537Z,83.26
2023-11-19T07:33:59.132Z,83.35
2023-11-19T07:36:26.759Z,82.91
2023-11-19T07:38:54.340Z,83.48
2023-11-19T07:41:21.913Z,83.00
2023-11-19T07:43:50.736Z,83.02
2023-11-19T07:46:20.807Z,83.36
2023-11-19T07:48:49.052Z,82.92
2023-11-19T07:51:16.766Z,82.84
2023-11-19T07:53:44.289Z,83.28
2023-11-19T07:56:11.900Z,82.94
2023-11-19T07:58:39.912Z,83.30
2023-11-19T08:01:07.522Z,83.07
2023-11-19T08:03:36.250Z,82.88
2023-11-19T08:06:04.333Z,83.34
2023-11-19T08:08:33.997Z,82.80
2023-11-19T08:11:01.619Z,83.02
2023-11-19T08:13:29.281Z,82.98
2023-11-19T08:15:56.932Z,82.75
2023-11-19T08:18:24.669Z,83.03
2023-11-19T08:20:54.762Z,82.93
2023-11-19T08:23:22.496Z,82.71
2023-11-19T08:25:50.133Z,82.50
2023-11-19T08:28:18.167Z,82.45
2023-11-19T08:30:46.356Z,82.32
2023-11-19T08:33:14.104Z,82.08
2023-11-19T08:35:42.012Z,82.00
2023-11-19T08:38:09.597Z,81.97
2023-11-19T08:40:37.271Z,81.84
2023-11-19T08:43:05.050Z,82.05
2023-11-19T08:45:33.059Z,82.16
2023-11-19T08:48:01.278Z,82.45
2023-11-19T08:50:29.395Z,82.04
2023-11-19T08:52:57.546Z,81.89
2023-11-19T08:55:25.203Z,81.71
2023-11-19T08:57:52.869Z,81.53
2023-11-19T09:00:20.519Z,81.81
2023-11-19T09:02:48.343Z,82.06
2023-11-19T09:05:16.113Z,81.90
2023-11-19T09:07:43.836Z,80.83
2023-11-19T09:10:12.937Z,80.95
2023-11-19T09:12:40.814Z,80.86
2023-11-19T09:15:08.829Z,80.91
2023-11-19T09:17:36.767Z,80.93
2023-11-19T09:20:04.620Z,80.70
2023-11-19T09:22:32.344Z,80.31
2023-11-19T09:25:01.666Z,79.88
2023-11-19T09:27:29.572Z,80.00
2023-11-19T09:29:59.415Z,80.31
2023-11-19T09:32:27.655Z,80.13
2023-11-19T09:34:55.679Z,80.07
2023-11-19T09:37:23.579Z,79.92
2023-11-19T09:39:51.899Z,80.55
2023-11-19T09:42:19.688Z,79.70
2023-11-19T09:44:47.498Z,80.01
2023-11-19T09:47:15.289Z,79.58
2023-11-19T09:49:43.147Z,79.50
2023-11-19T09:52:12.433Z,80.13
2023-11-19T09:54:40.553Z,79.31
2023-11-19T09:57:09.058Z,79.40
2023-11-19T09:59:36.893Z,79.69
2023-11-19T10:02:06.929Z,79.59
2023-11-19T10:04:36.036Z,79.43
2023-11-19T10:07:04.070Z,79.21
2023-11-19T10:09:31.823Z,79.22
2023-11-19T10:11:59.575Z,78.87
2023-11-19T10:14:27.283Z,78.96
2023-11-19T10:16:55.398Z,78.95
2023-11-19T10:19:23.125Z,78.38
2023-11-19T10:21:50.837Z,78.40
2023-11-19T10:26:52.014Z,77.80
2023-11-19T10:29:19.917Z,78.32
2023-11-19T10:31:50.205Z,78.36
2023-11-19T10:34:18.250Z,78.26
2023-11-19T10:36:46.010Z,77.57
2023-11-19T10:39:15.478Z,77.77
2023-11-19T10:41:44.127Z,77.78
2023-11-19T10:44:11.944Z,78.17
2023-11-19T10:46:40.557Z,77.40
2023-11-19T10:49:08.531Z,77.79
2023-11-19T10:51:36.386Z,77.59
2023-11-19T10:54:04.331Z,77.33
2023-11-19T10:56:32.226Z,77.72
2023-11-19T10:59:00.921Z,77.62
2023-11-19T11:01:29.077Z,77.16
2023-11-19T11:03:58.380Z,77.60
2023-11-19T11:06:26.245Z,78.01
2023-11-19T11:08:53.936Z,77.69
2023-11-19T11:11:22.979Z,78.04
2023-11-19T11:13:51.673Z,78.18
2023-11-19T11:16:20.455Z,77.98
2023-11-19T11:18:50.904Z,78.23
2023-11-19T11:21:19.117Z,77.96
2023-11-19T11:23:47.267Z,77.73
2023-11-19T11:26:15.207Z,77.65
2023-11-19T11:28:43.785Z,78.00
2023-11-19T11:31:12.361Z,78.08
2023-11-19T11:33:40.249Z,78.18
2023-11-19T11:36:07.990Z,77.46
2023-11-19T11:38:35.883Z,77.93
2023-11-19T11:41:07.230Z,77.83
2023-11-19T11:43:35.065Z,78.11
2023-11-19T11:46:05.294Z,77.95
2023-11-19T11:48:33.454Z,77.67
2023-11-19T11:51:01.238Z,78.24
2023-11-19T11:53:29.132Z,78.11
2023-11-19T11:55:59.246Z,78.21
2023-11-19T11:58:27.054Z,78.27
2023-11-19T12:00:55.091Z,77.73
2023-11-19T12:03:23.251Z,77.20
2023-11-19T12:05:51.435Z,77.16
2023-11-19T12:08:21.765Z,76.07
2023-11-19T12:10:54.149Z,74.87
2023-11-19T12:13:23.325Z,74.03
2023-11-19T12:15:51.919Z,72.56
2023-11-19T12:18:19.768Z,72.29
2023-11-19T12:20:47.904Z,71.64
2023-11-19T12:23:15.732Z,71.28
2023-11-19T12:25:43.650Z,70.74
2023-11-19T12:28:11.452Z,71.85
2023-11-19T12:30:39.621Z,72.46
2023-11-19T12:33:07.628Z,73.11
2023-11-19T12:35:35.478Z,73.50
2023-11-19T12:38:03.388Z,74.20
2023-11-19T12:40:31.334Z,74.62
2023-11-19T12:42:59.294Z,75.18
2023-11-19T12:45:27.216Z,74.73
2023-11-19T12:47:56.318Z,74.45
2023-11-19T12:50:24.280Z,75.25
2023-11-19T12:52:53.514Z,74.83
2023-11-19T12:55:29.128Z,75.65
2023-11-19T12:57:57.655Z,75.59
2023-11-19T13:00:25.611Z,75.72
2023-11-19T13:02:54.282Z,75.14
2023-11-19T13:05:20.966Z,75.47
2023-11-19T13:07:48.829Z,75.74
2023-11-19T13:10:18.807Z,75.42
2023-11-19T13:12:48.155Z,75.04
2023-11-19T13:15:16.072Z,75.90
2023-11-19T13:17:43.864Z,74.93
2023-11-19T13:20:11.818Z,75.57
2023-11-19T13:22:39.636Z,75.51
2023-11-19T13:25:07.656Z,75.35
2023-11-19T13:27:35.944Z,74.91
2023-11-19T13:30:03.973Z,75.93
2023-11-19T13:32:31.769Z,75.93
2023-11-19T13:34:59.876Z,75.86
2023-11-19T13:37:27.871Z,75.55
2023-11-19T13:39:56.252Z,75.38
2023-11-19T13:42:24.678Z,75.58
2023-11-19T13:44:52.640Z,75.50
2023-11-19T13:47:20.562Z,75.55
2023-11-19T13:49:48.438Z,75.15
2023-11-19T13:52:16.728Z,75.25
2023-11-19T13:54:44.826Z,75.28
2023-11-19T13:57:15.716Z,75.41
2023-11-19T13:59:43.621Z,75.68
2023-11-19T14:02:14.381Z,75.50
2023-11-19T14:04:42.896Z,75.33
2023-11-19T14:07:10.825Z,75.70
2023-11-19T14:09:42.463Z,75.43
2023-11-19T14:12:11.247Z,75.46
2023-11-19T14:14:40.800Z,75.17
2023-11-19T14:19:40.374Z,75.08
2023-11-19T14:22:08.323Z,73.16
2023-11-19T14:24:36.145Z,72.03
2023-11-19T14:27:03.906Z,72.31
2023-11-19T14:29:32.017Z,72.82
2023-11-19T14:32:00.371Z,73.31
2023-11-19T14:34:28.444Z,73.76
2023-11-19T14:36:56.434Z,74.52
2023-11-19T14:39:24.549Z,75.17
2023-11-19T14:41:53.409Z,76.43
2023-11-19T14:44:24.369Z,75.54
2023-11-19T14:46:53.692Z,76.59
2023-11-19T14:49:21.679Z,76.11
2023-11-19T14:51:49.799Z,76.19
2023-11-19T14:54:17.615Z,76.48
2023-11-19T14:56:45.561Z,75.97
2023-11-19T14:59:13.853Z,76.32
2023-11-19T15:01:45.592Z,77.25
2023-11-19T15:04:13.659Z,77.36
2023-11-19T15:06:41.763Z,78.29
2023-11-19T15:09:11.174Z,79.04
2023-11-19T15:11:39.031Z,78.28
2023-11-19T15:14:07.716Z,78.85
2023-11-19T15:16:36.482Z,79.02
2023-11-19T15:19:06.345Z,79.01
2023-11-19T15:21:34.281Z,79.20
2023-11-19T15:24:02.154Z,79.02
2023-11-19T15:26:30.086Z,78.49
2023-11-19T15:28:59.086Z,78.99
2023-11-19T15:31:27.612Z,79.18
2023-11-19T15:33:55.665Z,78.68
2023-11-19T15:36:23.599Z,78.90
2023-11-19T15:38:54.670Z,78.79
2023-11-19T15:41:22.759Z,78.76
2023-11-19T15:43:51.119Z,79.01
2023-11-19T15:46:19.148Z,79.56
2023-11-19T15:48:47.094Z,79.09
2023-11-19T15:51:15.124Z,79.04
2023-11-19T15:53:44.789Z,79.39
2023-11-19T15:56:12.829Z,79.22
2023-11-19T15:58:41.556Z,79.01
2023-11-19T16:01:10.314Z,79.37
2023-11-19T16:06:11.800Z,80.14
2023-11-19T16:08:40.715Z,80.54
2023-11-19T16:11:09.577Z,80.89
2023-11-19T16:13:37.451Z,80.54
2023-11-19T16:16:06.611Z,81.08
2023-11-19T16:18:35.118Z,81.05
2023-11-19T16:21:03.091Z,81.22
2023-11-19T16:23:31.006Z,81.43
2023-11-19T16:25:58.871Z,81.66
2023-11-19T16:28:27.125Z,81.31
2023-11-19T16:30:54.951Z,81.03
2023-11-19T16:33:28.872Z,80.28
2023-11-19T16:35:59.962Z,80.57
2023-11-19T16:38:28.502Z,80.61
2023-11-19T16:40:57.272Z,80.24
2023-11-19T16:43:30.192Z,80.94
2023-11-19T16:45:58.327Z,80.85
2023-11-19T16:48:26.575Z,80.74
2023-11-19T16:53:27.630Z,81.13
2023-11-19T16:56:00.096Z,81.37
2023-11-19T16:58:27.980Z,81.26
2023-11-19T17:00:55.791Z,81.69
2023-11-19T17:03:23.757Z,81.86
2023-11-19T17:05:51.666Z,81.75
2023-11-19T17:08:19.574Z,81.81
2023-11-19T17:10:48.309Z,82.17
2023-11-19T17:13:16.202Z,82.32
2023-11-19T17:15:44.320Z,82.07
2023-11-19T17:18:12.336Z,82.35
2023-11-19T17:20:41.977Z,82.17
2023-11-19T17:23:10.213Z,82.31
2023-11-19T17:25:39.924Z,82.75
2023-11-19T17:28:10.737Z,82.56
2023-11-19T17:30:39.458Z,82.97
2023-11-19T17:33:07.751Z,82.92
2023-11-19T17:35:36.028Z,82.56
2023-11-19T17:38:03.967Z,82.38
2023-11-19T17:40:32.789Z,83.00
2023-11-19T17:43:00.908Z,82.48
2023-11-19T17:45:32.779Z,82.24
2023-11-19T17:48:00.809Z,82.71
2023-11-19T17:50:28.840Z,82.45
2023-11-19T17:52:58.048Z,83.02
2023-11-19T17:55:26.370Z,83.09
2023-11-19T17:57:54.970Z,82.55
2023-11-19T18:00:23.287Z,82.54
2023-11-19T18:02:53.324Z,82.79
2023-11-19T18:05:22.599Z,82.43
2023-11-19T18:07:50.434Z,82.93
2023-11-19T18:10:18.902Z,82.50
2023-11-19T18:12:46.967Z,83.24
2023-11-19T18:15:17.005Z,83.28
2023-11-19T18:17:45.728Z,82.94
2023-11-19T18:20:15.393Z,83.14
2023-11-19T18:22:43.759Z,83.20
2023-11-19T18:25:12.510Z,83.27
2023-11-19T18:27:40.699Z,83.47
2023-11-19T18:30:09.181Z,83.50
2023-11-19T18:32:37.666Z,83.66
2023-11-19T18:35:06.451Z,83.82
2023-11-19T18:37:34.685Z,83.81
2023-11-19T18:40:02.963Z,83.55
2023-11-19T18:42:31.101Z,83.53
2023-11-19T18:44:59.043Z,83.87
2023-11-19T18:47:27.906Z,83.51
2023-11-19T18:49:55.694Z,83.82
2023-11-19T18:52:23.549Z,83.77
2023-11-19T18:54:51.448Z,83.69
2023-11-19T18:57:19.560Z,84.08
2023-11-19T18:59:48.824Z,83.79
2023-11-19T19:02:17.287Z,84.62
2023-11-19T19:04:45.828Z,83.90
2023-11-19T19:07:13.699Z,84.19
2023-11-19T19:09:43.631Z,84.13
2023-11-19T19:12:11.690Z,84.04
2023-11-19T19:14:39.535Z,84.21
2023-11-19T19:17:09.548Z,83.95
2023-11-19T19:19:40.494Z,84.06
2023-11-19T19:22:08.413Z,83.71
2023-11-19T19:24:38.626Z,83.58
2023-11-19T19:27:06.342Z,83.82
2023-11-19T19:29:34.215Z,84.19
2023-11-19T19:32:02.168Z,83.97
2023-11-19T19:34:31.129Z,83.91
2023-11-19T19:36:59.819Z,84.09
2023-11-19T19:39:29.513Z,84.38
2023-11-19T19:41:57.411Z,84.90
2023-11-19T19:44:26.872Z,84.57
2023-11-19T19:46:55.469Z,84.37
2023-11-19T19:49:23.320Z,84.59
2023-11-19T19:51:52.021Z,84.88
2023-11-19T19:54:19.989Z,84.82
2023-11-19T19:56:47.862Z,84.66
2023-11-19T19:59:15.881Z,84.59
2023-11-19T20:01:43.907Z,84.94
2023-11-19T20:04:12.723Z,84.62
2023-11-19T20:06:42.723Z,85.34
2023-11-19T20:09:15.094Z,84.48
2023-11-19T20:11:45.112Z,84.77
2023-11-19T20:14:13.987Z,85.05
2023-11-19T20:16:41.909Z,84.79
2023-11-19T20:19:09.921Z,85.19
2023-11-19T20:21:38.328Z,85.13
2023-11-19T20:24:07.062Z,85.04
2023-11-19T20:26:35.547Z,85.20
2023-11-19T20:31:35.075Z,85.08
2023-11-19T20:34:03.353Z,85.05
2023-11-19T20:36:31.586Z,85.27
2023-11-19T20:38:59.502Z,85.52
2023-11-19T20:41:29.005Z,85.32
2023-11-19T20:43:56.886Z,85.24
2023-11-19T20:46:24.963Z,85.54
2023-11-19T20:48:53.300Z,85.40
2023-11-19T20:51:28.082Z,85.26
2023-11-19T20:53:59.533Z,85.87
2023-11-19T20:56:27.418Z,85.75
2023-11-19T20:58:56.046Z,85.54
2023-11-19T21:01:24.019Z,85.82
2023-11-19T21:03:52.004Z,85.66
2023-11-19T21:06:21.201Z,85.72
2023-11-19T21:08:48.124Z,85.75
2023-11-19T21:11:16.042Z,85.70
2023-11-19T21:13:45.275Z,86.32
2023-11-19T21:16:13.164Z,86.11
2023-11-19T21:18:41.209Z,86.06
2023-11-19T21:21:09.250Z,85.53
2023-11-19T21:23:37.333Z,86.23
2023-11-19T21:26:05.655Z,85.74
2023-11-19T21:28:34.658Z,86.18
2023-11-19T21:31:02.816Z,85.83
2023-11-19T21:33:31.015Z,85.94
2023-11-19T21:35:59.724Z,86.18
2023-11-19T21:38:29.024Z,86.36
2023-11-19T21:40:56.944Z,85.73
2023-11-19T21:43:24.763Z,86.00
2023-11-19T21:45:52.638Z,86.33
2023-11-19T21:48:20.572Z,86.26
2023-11-19T21:50:48.925Z,86.39
2023-11-19T21:53:17.405Z,85.97
2023-11-19T21:55:45.559Z,86.11
2023-11-19T21:58:13.717Z,86.51
2023-11-19T22:00:41.761Z,86.00
2023-11-19T22:03:09.809Z,85.89
2023-11-19T22:05:37.703Z,86.69
2023-11-19T22:10:36.191Z,86.69
2023-11-19T22:13:04.694Z,86.71
2023-11-19T22:15:32.903Z,86.18
2023-11-19T22:18:01.001Z,86.74
2023-11-19T22:20:29.651Z,86.79
2023-11-19T22:22:57.668Z,86.65
2023-11-19T22:25:28.064Z,87.06
2023-11-19T22:27:55.991Z,86.87
2023-11-19T22:30:23.950Z,87.06
2023-11-19T22:32:52.535Z,86.67
2023-11-19T22:35:20.475Z,86.98
2023-11-19T22:37:48.246Z,86.30
2023-11-19T22:40:16.254Z,86.88
2023-11-19T22:42:43.974Z,86.99
2023-11-19T22:45:11.757Z,87.03
2023-11-19T22:47:39.597Z,86.51
2023-11-19T22:50:08.258Z,86.81
2023-11-19T22:52:36.750Z,86.89
2023-11-19T22:55:04.743Z,86.78
2023-11-19T22:57:32.524Z,86.54
2023-11-19T23:00:00.411Z,86.96
2023-11-19T23:02:30.915Z,87.00
2023-11-19T23:04:58.771Z,87.10
2023-11-19T23:07:26.734Z,87.26
2023-11-19T23:10:12.829Z,86.93
2023-11-19T23:12:41.372Z,87.00
2023-11-19T23:15:15.841Z,86.50
2023-11-19T23:17:44.104Z,86.70
2023-11-19T23:20:14.392Z,87.16
2023-11-19T23:22:42.515Z,86.94
2023-11-19T23:25:11.441Z,86.84
2023-11-19T23:27:39.179Z,86.75
2023-11-19T23:30:06.878Z,86.35
2023-11-19T23:32:35.714Z,86.92
2023-11-19T23:35:10.196Z,86.48
2023-11-19T23:37:38.278Z,86.61
2023-11-19T23:40:07.430Z,86.81
2023-11-19T23:42:35.220Z,87.28
2023-11-19T23:45:02.982Z,86.81
2023-11-19T23:47:30.859Z,86.27
2023-11-19T23:49:58.696Z,86.29
2023-11-19T23:52:26.360Z,86.43
2023-11-19T23:54:54.046Z,86.62
2023-11-19T23:57:22.689Z,86.20
2023-11-19T23:59:50.376Z,86.06
